Time;durP1;ratioP1;P1;durP2;ratioP2;P2;SDS_P1;SDS_P2;PMS_P1;PMS_P2;Temp;Humidity;BMP_temperature;BMP_pressure;BME280_temperature;BME280_humidity;BME280_pressure;Samples;Min_cycle;Max_cycle;Signal;HPM_P1;HPM_P2
2024/03/24 00:00:02;;;;;;;3.87;2.60;;;;;;;;;;527020;28;1359;-69
2024/03/24 00:00:18;;;;;;;4.28;2.50;;;;;;;;;;526618;28;1481;-68
2024/03/24 00:00:33;;;;;;;3.70;1.85;;;;;;;;;;526580;28;1885;-70
2024/03/24 00:00:49;;;;;;;3.90;2.13;;;;;;;;;;526646;28;2214;-69
2024/03/24 00:01:07;;;;;;;4.28;2.55;;;;;;;;;;526785;28;1359;-68
2024/03/24 00:01:22;;;;;;;2.65;1.65;;;;;;;;;;524853;28;1289;-68
2024/03/24 00:01:37;;;;;;;2.90;1.50;;;;;;;;;;526089;28;1351;-68
2024/03/24 00:01:52;;;;;;;3.83;1.50;;;;;;;;;;526774;28;1422;-69
2024/03/24 00:02:08;;;;;;;3.57;1.40;;;;;;;;;;524726;28;1435;-68
2024/03/24 00:02:23;;;;;;;3.17;1.87;;;;;;;;;;525827;28;1881;-68
2024/03/24 00:02:41;;;;;;;3.50;2.10;;;;;;;;;;526324;28;1367;-68
2024/03/24 00:02:57;;;;;;;3.38;2.05;;;;;;;;;;525639;28;1236;-69
2024/03/24 00:03:12;;;;;;;3.80;2.27;;;;;;;;;;527524;28;1409;-68
2024/03/24 00:03:27;;;;;;;4.33;2.57;;;;;;;;;;528096;27;1530;-68
2024/03/24 00:03:43;;;;;;;4.35;2.40;;;;;;;;;;525736;28;1355;-69
2024/03/24 00:03:58;;;;;;;3.93;2.20;;;;;;;;;;526277;27;1348;-68
2024/03/24 00:04:13;;;;;;;3.50;1.73;;;;;;;;;;526379;28;1351;-69
2024/03/24 00:04:28;;;;;;;3.17;1.50;;;;;;;;;;527213;28;1346;-69
2024/03/24 00:04:44;;;;;;;3.90;2.03;;;;;;;;;;526469;28;1414;-69
2024/03/24 00:04:59;;;;;;;4.13;1.97;;;;;;;;;;526328;28;1399;-69
2024/03/24 00:05:14;;;;;;;2.90;1.50;;;;;;;;;;526461;28;1382;-69
2024/03/24 00:05:30;;;;;;;2.67;1.30;;;;;;;;;;527183;28;1346;-68
2024/03/24 00:05:45;;;;;;;2.77;1.37;;;;;;;;;;528438;27;3410;-68
2024/03/24 00:06:00;;;;;;;4.00;2.60;;;;;;;;;;529210;27;1397;-69
2024/03/24 00:06:16;;;;;;;4.65;2.58;;;;;;;;;;530608;27;1389;-68
2024/03/24 00:06:31;;;;;;;3.40;1.30;;;;;;;;;;530720;27;1421;-70
2024/03/24 00:06:46;;;;;;;3.20;1.60;;;;;;;;;;527873;27;1398;-68
2024/03/24 00:07:02;;;;;;;3.92;1.98;;;;;;;;;;529089;27;1410;-68
2024/03/24 00:07:17;;;;;;;3.30;1.60;;;;;;;;;;528878;27;1500;-69
2024/03/24 00:07:32;;;;;;;2.90;1.40;;;;;;;;;;527807;27;1539;-68
2024/03/24 00:07:47;;;;;;;4.47;2.00;;;;;;;;;;529163;27;1429;-68
2024/03/24 00:08:03;;;;;;;4.20;2.07;;;;;;;;;;528480;27;1374;-69
2024/03/24 00:08:18;;;;;;;2.53;1.40;;;;;;;;;;528186;28;1346;-68
2024/03/24 00:08:34;;;;;;;2.80;1.33;;;;;;;;;;527543;27;1272;-68
2024/03/24 00:08:51;;;;;;;3.65;1.50;;;;;;;;;;528234;27;1841;-68
2024/03/24 00:09:08;;;;;;;4.15;1.55;;;;;;;;;;526463;27;1464;-69
2024/03/24 00:09:24;;;;;;;3.80;1.60;;;;;;;;;;527762;27;1060;-69
2024/03/24 00:09:40;;;;;;;4.13;1.65;;;;;;;;;;528036;27;1324;-68
2024/03/24 00:09:55;;;;;;;3.43;1.60;;;;;;;;;;526507;28;1378;-68
2024/03/24 00:10:10;;;;;;;3.80;1.70;;;;;;;;;;526709;28;1398;-69
2024/03/24 00:10:25;;;;;;;3.78;1.55;;;;;;;;;;525937;28;1919;-69
2024/03/24 00:10:41;;;;;;;2.33;1.20;;;;;;;;;;526469;28;1335;-69
2024/03/24 00:10:57;;;;;;;2.50;1.10;;;;;;;;;;526588;28;1357;-69
2024/03/24 00:11:12;;;;;;;2.45;1.33;;;;;;;;;;526261;28;1446;-68
2024/03/24 00:11:28;;;;;;;3.33;1.83;;;;;;;;;;527465;28;1465;-68
2024/03/24 00:11:43;;;;;;;4.83;2.97;;;;;;;;;;528375;27;1520;-69
2024/03/24 00:11:58;;;;;;;5.80;3.30;;;;;;;;;;527807;27;1932;-68
2024/03/24 00:12:13;;;;;;;4.88;2.10;;;;;;;;;;526560;27;1394;-68
2024/03/24 00:12:29;;;;;;;3.23;1.17;;;;;;;;;;528910;27;1362;-68
2024/03/24 00:12:46;;;;;;;4.93;2.10;;;;;;;;;;526164;28;2053;-68
2024/03/24 00:13:02;;;;;;;6.75;3.67;;;;;;;;;;526232;28;1913;-69
2024/03/24 00:13:18;;;;;;;6.35;3.92;;;;;;;;;;526367;28;1422;-69
2024/03/24 00:13:33;;;;;;;7.20;4.77;;;;;;;;;;526214;28;1252;-68
2024/03/24 00:13:48;;;;;;;7.20;3.92;;;;;;;;;;524157;28;2207;-68
2024/03/24 00:14:04;;;;;;;4.73;2.17;;;;;;;;;;526274;28;1462;-68
2024/03/24 00:14:19;;;;;;;3.10;1.60;;;;;;;;;;525936;28;1340;-68
2024/03/24 00:14:35;;;;;;;3.37;1.93;;;;;;;;;;526995;27;1315;-68
2024/03/24 00:14:50;;;;;;;3.80;2.85;;;;;;;;;;528091;27;1379;-68
2024/03/24 00:15:05;;;;;;;5.53;4.03;;;;;;;;;;527711;27;1386;-68
2024/03/24 00:15:21;;;;;;;6.17;3.60;;;;;;;;;;528476;27;1232;-68
2024/03/24 00:15:36;;;;;;;4.45;2.50;;;;;;;;;;528959;27;1981;-68
2024/03/24 00:15:52;;;;;;;2.73;1.73;;;;;;;;;;531025;27;1330;-68
2024/03/24 00:16:08;;;;;;;2.55;1.60;;;;;;;;;;531038;27;1337;-69
2024/03/24 00:16:23;;;;;;;2.58;1.60;;;;;;;;;;529933;27;1373;-69
2024/03/24 00:16:38;;;;;;;2.77;1.20;;;;;;;;;;531312;27;1437;-69
2024/03/24 00:16:54;;;;;;;2.93;1.20;;;;;;;;;;529289;27;2062;-69
2024/03/24 00:17:09;;;;;;;2.50;1.20;;;;;;;;;;529637;27;1915;-69
2024/03/24 00:17:24;;;;;;;2.20;1.10;;;;;;;;;;527669;27;1606;-69
2024/03/24 00:17:39;;;;;;;1.80;1.10;;;;;;;;;;527700;27;1375;-68
2024/03/24 00:17:55;;;;;;;3.73;1.37;;;;;;;;;;528167;27;1350;-68
2024/03/24 00:18:10;;;;;;;4.30;1.50;;;;;;;;;;527883;27;1514;-69
2024/03/24 00:18:25;;;;;;;2.43;1.30;;;;;;;;;;527654;28;1899;-69
2024/03/24 00:18:40;;;;;;;2.23;1.10;;;;;;;;;;529158;27;1255;-69
2024/03/24 00:18:56;;;;;;;3.47;1.23;;;;;;;;;;526150;28;1367;-69
2024/03/24 00:19:13;;;;;;;3.33;1.30;;;;;;;;;;526834;28;1375;-69
2024/03/24 00:19:29;;;;;;;1.95;1.10;;;;;;;;;;527824;27;1493;-68
2024/03/24 00:19:44;;;;;;;2.00;1.10;;;;;;;;;;528293;27;1496;-71
2024/03/24 00:19:59;;;;;;;2.73;1.00;;;;;;;;;;528098;27;1584;-69
2024/03/24 00:20:14;;;;;;;3.13;0.90;;;;;;;;;;528544;27;1901;-69
2024/03/24 00:20:33;;;;;;;2.37;1.00;;;;;;;;;;527568;28;850;-68
2024/03/24 00:20:48;;;;;;;3.60;1.20;;;;;;;;;;527790;27;1405;-69
2024/03/24 00:21:04;;;;;;;4.17;1.23;;;;;;;;;;528521;28;1398;-69
2024/03/24 00:21:19;;;;;;;2.80;1.10;;;;;;;;;;527509;27;1414;-69
2024/03/24 00:21:34;;;;;;;2.47;1.00;;;;;;;;;;527744;27;1116;-69
2024/03/24 00:21:50;;;;;;;2.63;1.10;;;;;;;;;;528072;27;1192;-69
2024/03/24 00:22:05;;;;;;;2.83;1.00;;;;;;;;;;526206;28;2235;-70
2024/03/24 00:22:21;;;;;;;2.10;0.87;;;;;;;;;;524305;28;1798;-69
2024/03/24 00:22:36;;;;;;;2.60;0.98;;;;;;;;;;523309;28;1356;-69
2024/03/24 00:22:51;;;;;;;3.53;1.23;;;;;;;;;;524900;28;1364;-69
2024/03/24 00:23:07;;;;;;;2.30;1.10;;;;;;;;;;524213;28;1222;-69
2024/03/24 00:23:22;;;;;;;2.15;1.00;;;;;;;;;;526036;28;1351;-70
2024/03/24 00:23:38;;;;;;;3.15;1.10;;;;;;;;;;527252;28;2315;-68
2024/03/24 00:23:54;;;;;;;2.47;1.00;;;;;;;;;;528342;28;846;-69
2024/03/24 00:24:09;;;;;;;1.42;0.90;;;;;;;;;;174664;28;10001053;-69
2024/03/24 00:24:24;;;;;;;1.87;0.93;;;;;;;;;;524432;28;1247;-69
2024/03/24 00:24:40;;;;;;;2.58;1.10;;;;;;;;;;523007;28;1411;-69
2024/03/24 00:24:55;;;;;;;3.10;1.13;;;;;;;;;;523189;28;1455;-69
2024/03/24 00:25:10;;;;;;;2.70;1.10;;;;;;;;;;523509;28;1352;-69
2024/03/24 00:25:26;;;;;;;1.97;1.03;;;;;;;;;;523693;28;1110;-69
2024/03/24 00:25:41;;;;;;;2.58;1.20;;;;;;;;;;523416;28;941;-68
2024/03/24 00:25:56;;;;;;;4.00;1.30;;;;;;;;;;523492;28;806;-69
2024/03/24 00:26:12;;;;;;;3.53;1.27;;;;;;;;;;523805;28;933;-69
2024/03/24 00:26:27;;;;;;;2.23;1.10;;;;;;;;;;522931;28;1211;-69
2024/03/24 00:26:43;;;;;;;2.20;1.00;;;;;;;;;;527589;28;1006;-69
2024/03/24 00:26:59;;;;;;;2.13;1.00;;;;;;;;;;525713;28;1305;-69
2024/03/24 00:27:15;;;;;;;2.80;1.20;;;;;;;;;;525599;28;893;-69
2024/03/24 00:27:31;;;;;;;3.28;1.20;;;;;;;;;;526877;28;940;-69
2024/03/24 00:27:46;;;;;;;2.80;1.20;;;;;;;;;;527758;28;976;-69
2024/03/24 00:28:02;;;;;;;2.47;1.30;;;;;;;;;;527630;28;984;-68
2024/03/24 00:28:18;;;;;;;2.80;1.05;;;;;;;;;;527475;28;936;-69
2024/03/24 00:28:35;;;;;;;3.03;1.00;;;;;;;;;;527630;28;1154;-69
2024/03/24 00:28:50;;;;;;;3.60;1.00;;;;;;;;;;527718;28;882;-69
2024/03/24 00:29:05;;;;;;;3.23;1.07;;;;;;;;;;527728;28;845;-69
2024/03/24 00:29:21;;;;;;;2.35;1.20;;;;;;;;;;527639;28;861;-69
2024/03/24 00:29:36;;;;;;;2.53;1.13;;;;;;;;;;524926;28;1364;-68
2024/03/24 00:29:51;;;;;;;2.07;1.10;;;;;;;;;;525534;28;1044;-69
2024/03/24 00:30:07;;;;;;;2.00;1.10;;;;;;;;;;525628;28;893;-69
2024/03/24 00:30:22;;;;;;;2.00;0.98;;;;;;;;;;525883;28;1048;-69
2024/03/24 00:30:37;;;;;;;2.67;1.10;;;;;;;;;;528158;27;980;-69
2024/03/24 00:30:53;;;;;;;3.03;1.13;;;;;;;;;;529851;27;905;-68
2024/03/24 00:31:08;;;;;;;2.13;1.20;;;;;;;;;;528573;27;1157;-69
2024/03/24 00:31:23;;;;;;;1.80;1.25;;;;;;;;;;527934;27;1109;-68
2024/03/24 00:31:39;;;;;;;1.73;1.03;;;;;;;;;;527810;28;1703;-70
2024/03/24 00:31:54;;;;;;;2.03;0.97;;;;;;;;;;531513;27;1110;-68
2024/03/24 00:32:11;;;;;;;3.10;1.08;;;;;;;;;;531254;27;1071;-68
2024/03/24 00:32:26;;;;;;;3.67;1.10;;;;;;;;;;527866;28;1524;-68
2024/03/24 00:32:42;;;;;;;2.17;1.00;;;;;;;;;;529973;27;892;-68
2024/03/24 00:32:57;;;;;;;2.10;1.00;;;;;;;;;;527638;28;798;-69
2024/03/24 00:33:12;;;;;;;2.45;1.10;;;;;;;;;;527424;28;1034;-69
2024/03/24 00:33:27;;;;;;;2.37;1.10;;;;;;;;;;526012;28;1406;-69
2024/03/24 00:33:43;;;;;;;2.40;1.10;;;;;;;;;;526597;28;1189;-68
2024/03/24 00:33:58;;;;;;;2.50;1.10;;;;;;;;;;523653;28;1200;-68
2024/03/24 00:34:13;;;;;;;2.00;0.90;;;;;;;;;;523878;28;1095;-69
2024/03/24 00:34:29;;;;;;;1.90;1.10;;;;;;;;;;525863;28;1163;-68
2024/03/24 00:34:45;;;;;;;2.70;1.50;;;;;;;;;;525346;28;1167;-68
2024/03/24 00:35:00;;;;;;;2.70;1.27;;;;;;;;;;525514;28;886;-68
2024/03/24 00:35:16;;;;;;;2.27;1.00;;;;;;;;;;526830;28;1222;-69
2024/03/24 00:35:31;;;;;;;2.05;1.10;;;;;;;;;;526580;28;1011;-69
2024/03/24 00:35:46;;;;;;;2.63;1.20;;;;;;;;;;527871;27;1911;-68
2024/03/24 00:36:02;;;;;;;3.27;1.30;;;;;;;;;;529709;27;810;-69
2024/03/24 00:36:17;;;;;;;2.67;1.25;;;;;;;;;;527613;28;1299;-69
2024/03/24 00:36:32;;;;;;;2.60;1.13;;;;;;;;;;528015;27;1016;-68
2024/03/24 00:36:48;;;;;;;3.53;1.20;;;;;;;;;;530338;27;1234;-68
2024/03/24 00:37:03;;;;;;;4.25;1.38;;;;;;;;;;532075;27;913;-68
2024/03/24 00:37:19;;;;;;;3.50;1.40;;;;;;;;;;531240;27;1085;-69
2024/03/24 00:37:36;;;;;;;4.15;1.73;;;;;;;;;;530244;27;1522;-68
2024/03/24 00:37:51;;;;;;;4.13;1.92;;;;;;;;;;530598;27;1572;-68
2024/03/24 00:38:06;;;;;;;3.20;1.60;;;;;;;;;;530737;27;1055;-68
2024/03/24 00:38:22;;;;;;;3.33;1.80;;;;;;;;;;528132;27;1217;-69
2024/03/24 00:38:37;;;;;;;3.00;1.80;;;;;;;;;;529649;27;1067;-69
2024/03/24 00:38:52;;;;;;;2.07;1.20;;;;;;;;;;526961;27;856;-68
2024/03/24 00:39:08;;;;;;;2.00;0.90;;;;;;;;;;525479;28;807;-69
2024/03/24 00:39:23;;;;;;;2.60;1.08;;;;;;;;;;527052;28;1158;-69
2024/03/24 00:39:38;;;;;;;2.67;1.13;;;;;;;;;;527296;28;857;-69
2024/03/24 00:39:53;;;;;;;2.33;1.07;;;;;;;;;;528256;28;1147;-69
2024/03/24 00:40:13;;;;;;;2.47;1.23;;;;;;;;;;528496;27;1067;-69
2024/03/24 00:40:28;;;;;;;3.33;1.73;;;;;;;;;;529476;27;1067;-69
2024/03/24 00:40:43;;;;;;;3.63;1.63;;;;;;;;;;532146;27;1066;-69
2024/03/24 00:40:59;;;;;;;3.80;1.63;;;;;;;;;;527429;28;1185;-69
2024/03/24 00:41:14;;;;;;;3.27;1.70;;;;;;;;;;525183;28;1275;-69
2024/03/24 00:41:29;;;;;;;3.13;1.80;;;;;;;;;;526567;28;949;-68
2024/03/24 00:41:45;;;;;;;2.97;1.65;;;;;;;;;;527441;28;1087;-69
2024/03/24 00:42:00;;;;;;;2.67;1.37;;;;;;;;;;525622;28;1284;-69
2024/03/24 00:42:15;;;;;;;2.90;1.20;;;;;;;;;;525562;28;1372;-69
2024/03/24 00:42:30;;;;;;;2.93;1.13;;;;;;;;;;525456;28;1124;-69
2024/03/24 00:42:46;;;;;;;2.85;1.20;;;;;;;;;;526656;28;1111;-68
2024/03/24 00:43:01;;;;;;;2.40;1.17;;;;;;;;;;529883;27;972;-69
2024/03/24 00:43:16;;;;;;;2.30;1.17;;;;;;;;;;528823;27;1014;-69
2024/03/24 00:43:32;;;;;;;2.50;1.27;;;;;;;;;;526003;28;1064;-69
2024/03/24 00:43:48;;;;;;;1.90;0.98;;;;;;;;;;525561;28;1091;-69
2024/03/24 00:44:03;;;;;;;1.97;0.90;;;;;;;;;;523422;28;977;-69
2024/03/24 00:44:18;;;;;;;3.10;1.10;;;;;;;;;;524716;28;1027;-68
2024/03/24 00:44:33;;;;;;;2.53;1.13;;;;;;;;;;523160;28;905;-68
2024/03/24 00:44:49;;;;;;;2.28;1.38;;;;;;;;;;523398;28;1197;-69
2024/03/24 00:45:05;;;;;;;3.17;1.77;;;;;;;;;;523627;28;957;-69
2024/03/24 00:45:20;;;;;;;3.30;1.63;;;;;;;;;;523631;28;1039;-69
2024/03/24 00:45:35;;;;;;;2.80;1.13;;;;;;;;;;525683;28;845;-69
2024/03/24 00:45:51;;;;;;;3.20;1.00;;;;;;;;;;525948;28;905;-68
2024/03/24 00:46:06;;;;;;;2.63;0.90;;;;;;;;;;525377;28;1355;-69
2024/03/24 00:46:21;;;;;;;1.87;0.90;;;;;;;;;;526380;28;1078;-69
2024/03/24 00:46:36;;;;;;;1.90;0.90;;;;;;;;;;526996;28;885;-69
2024/03/24 00:46:52;;;;;;;1.80;0.90;;;;;;;;;;525566;28;1461;-69
2024/03/24 00:47:07;;;;;;;2.50;1.00;;;;;;;;;;523145;28;1472;-69
2024/03/24 00:47:23;;;;;;;2.40;1.10;;;;;;;;;;522427;28;1226;-69
2024/03/24 00:47:38;;;;;;;2.30;1.20;;;;;;;;;;525655;28;877;-68
2024/03/24 00:47:55;;;;;;;3.00;1.20;;;;;;;;;;525860;28;854;-69
2024/03/24 00:48:10;;;;;;;2.55;1.20;;;;;;;;;;527658;28;948;-68
2024/03/24 00:48:25;;;;;;;3.57;1.40;;;;;;;;;;527257;28;1090;-69
2024/03/24 00:48:40;;;;;;;3.63;1.23;;;;;;;;;;527730;28;1221;-69
2024/03/24 00:48:56;;;;;;;2.73;1.00;;;;;;;;;;527740;28;881;-68
2024/03/24 00:49:12;;;;;;;3.43;1.07;;;;;;;;;;527721;28;963;-69
2024/03/24 00:49:27;;;;;;;3.38;1.00;;;;;;;;;;527413;28;905;-68
2024/03/24 00:49:43;;;;;;;2.27;1.00;;;;;;;;;;527674;28;822;-68
2024/03/24 00:49:58;;;;;;;2.77;1.00;;;;;;;;;;527485;28;992;-69
2024/03/24 00:50:14;;;;;;;3.03;0.90;;;;;;;;;;527588;27;1050;-69
2024/03/24 00:50:29;;;;;;;3.05;1.10;;;;;;;;;;528665;27;1340;-69
2024/03/24 00:50:45;;;;;;;3.35;1.30;;;;;;;;;;525554;28;882;-69
2024/03/24 00:51:00;;;;;;;2.63;1.10;;;;;;;;;;527060;28;1127;-69
2024/03/24 00:51:15;;;;;;;2.47;1.00;;;;;;;;;;527490;28;1154;-68
2024/03/24 00:51:31;;;;;;;3.13;1.00;;;;;;;;;;525320;28;1266;-69
2024/03/24 00:51:46;;;;;;;2.73;1.00;;;;;;;;;;525498;28;795;-69
2024/03/24 00:52:01;;;;;;;2.45;1.15;;;;;;;;;;525426;28;1164;-68
2024/03/24 00:52:16;;;;;;;3.03;1.60;;;;;;;;;;523353;28;1274;-69
2024/03/24 00:52:32;;;;;;;3.10;1.70;;;;;;;;;;523631;28;1033;-68
2024/03/24 00:52:47;;;;;;;3.65;1.50;;;;;;;;;;525648;28;827;-68
2024/03/24 00:53:04;;;;;;;3.07;1.20;;;;;;;;;;525660;28;1205;-68
2024/03/24 00:53:19;;;;;;;2.60;1.10;;;;;;;;;;525749;28;1059;-70
2024/03/24 00:53:34;;;;;;;3.03;1.10;;;;;;;;;;527639;28;1067;-69
2024/03/24 00:53:49;;;;;;;2.97;1.00;;;;;;;;;;527437;28;913;-69
2024/03/24 00:54:05;;;;;;;2.57;1.10;;;;;;;;;;524979;28;1158;-69
2024/03/24 00:54:20;;;;;;;2.40;1.10;;;;;;;;;;527540;28;1043;-68
2024/03/24 00:54:35;;;;;;;2.07;1.10;;;;;;;;;;527184;28;1157;-69
2024/03/24 00:54:50;;;;;;;1.70;1.10;;;;;;;;;;527750;28;948;-69
2024/03/24 00:55:06;;;;;;;1.77;1.07;;;;;;;;;;527786;28;890;-69
2024/03/24 00:55:21;;;;;;;2.10;1.00;;;;;;;;;;527378;28;1173;-69
2024/03/24 00:55:36;;;;;;;2.03;1.00;;;;;;;;;;527717;28;1912;-68
2024/03/24 00:55:52;;;;;;;1.97;0.90;;;;;;;;;;527172;28;853;-69
2024/03/24 00:56:07;;;;;;;2.15;0.90;;;;;;;;;;525570;28;834;-69
2024/03/24 00:56:22;;;;;;;2.80;1.03;;;;;;;;;;525529;28;1015;-68
2024/03/24 00:56:37;;;;;;;2.37;1.03;;;;;;;;;;527653;28;969;-68
2024/03/24 00:56:53;;;;;;;2.00;1.10;;;;;;;;;;527810;28;1032;-68
2024/03/24 00:57:08;;;;;;;2.38;1.20;;;;;;;;;;527615;28;1084;-68
2024/03/24 00:57:24;;;;;;;2.07;1.00;;;;;;;;;;527492;28;1066;-69
2024/03/24 00:57:39;;;;;;;1.75;0.93;;;;;;;;;;527782;28;1071;-68
2024/03/24 00:57:54;;;;;;;1.83;1.00;;;;;;;;;;527241;28;1015;-69
2024/03/24 00:58:10;;;;;;;2.17;1.07;;;;;;;;;;527446;28;941;-68
2024/03/24 00:58:25;;;;;;;2.03;0.95;;;;;;;;;;527464;28;1066;-69
2024/03/24 00:58:40;;;;;;;2.43;0.90;;;;;;;;;;527486;28;1273;-69
2024/03/24 00:58:55;;;;;;;2.43;1.00;;;;;;;;;;527510;28;1008;-69
2024/03/24 00:59:11;;;;;;;2.63;1.03;;;;;;;;;;527729;28;885;-69
2024/03/24 00:59:26;;;;;;;3.03;1.00;;;;;;;;;;527238;28;1063;-68
2024/03/24 00:59:41;;;;;;;3.43;1.00;;;;;;;;;;525399;28;1159;-68
2024/03/24 00:59:56;;;;;;;3.30;1.07;;;;;;;;;;525475;28;913;-69
2024/03/24 01:00:12;;;;;;;2.08;0.90;;;;;;;;;;525657;28;851;-69
2024/03/24 01:00:28;;;;;;;2.10;1.00;;;;;;;;;;525309;28;1143;-68
2024/03/24 01:00:44;;;;;;;2.45;0.95;;;;;;;;;;527560;28;1092;-68
2024/03/24 01:00:59;;;;;;;2.33;0.90;;;;;;;;;;527994;27;1181;-69
2024/03/24 01:01:14;;;;;;;1.83;0.90;;;;;;;;;;529484;27;1052;-69
2024/03/24 01:01:29;;;;;;;1.87;0.80;;;;;;;;;;526206;28;1132;-69
2024/03/24 01:01:45;;;;;;;1.80;0.90;;;;;;;;;;528811;27;1075;-69
2024/03/24 01:02:00;;;;;;;1.87;0.97;;;;;;;;;;528911;27;1082;-68
2024/03/24 01:02:16;;;;;;;2.07;1.03;;;;;;;;;;527560;28;1046;-69
2024/03/24 01:02:31;;;;;;;2.42;1.13;;;;;;;;;;527551;28;1262;-69
2024/03/24 01:02:49;;;;;;;2.63;1.03;;;;;;;;;;527528;28;1139;-69
2024/03/24 01:03:05;;;;;;;2.30;1.00;;;;;;;;;;528849;27;1075;-68
2024/03/24 01:03:20;;;;;;;2.30;1.10;;;;;;;;;;529805;27;1235;-69
2024/03/24 01:03:35;;;;;;;2.87;1.10;;;;;;;;;;529865;27;1098;-68
2024/03/24 01:03:50;;;;;;;2.33;0.90;;;;;;;;;;528379;28;1277;-69
2024/03/24 01:04:06;;;;;;;2.35;0.95;;;;;;;;;;529726;27;1267;-68
2024/03/24 01:04:21;;;;;;;2.93;1.20;;;;;;;;;;529753;27;1015;-69
2024/03/24 01:04:36;;;;;;;2.53;1.30;;;;;;;;;;531767;27;849;-69
2024/03/24 01:04:52;;;;;;;2.73;1.57;;;;;;;;;;525502;28;1311;-69
2024/03/24 01:05:07;;;;;;;3.85;2.15;;;;;;;;;;528387;27;1147;-68
2024/03/24 01:05:22;;;;;;;3.78;2.03;;;;;;;;;;528547;27;1390;-69
2024/03/24 01:05:38;;;;;;;2.93;1.27;;;;;;;;;;527582;28;845;-68
2024/03/24 01:05:53;;;;;;;2.50;1.10;;;;;;;;;;527615;28;1260;-68
2024/03/24 01:06:08;;;;;;;2.73;1.00;;;;;;;;;;528985;27;1047;-69
2024/03/24 01:06:23;;;;;;;3.15;1.00;;;;;;;;;;527786;28;993;-69
2024/03/24 01:06:39;;;;;;;3.27;1.00;;;;;;;;;;527681;28;1090;-68
2024/03/24 01:06:54;;;;;;;3.33;1.50;;;;;;;;;;527659;28;822;-69
2024/03/24 01:07:09;;;;;;;2.47;1.60;;;;;;;;;;527662;28;877;-69
2024/03/24 01:07:25;;;;;;;2.50;1.10;;;;;;;;;;527445;28;1062;-69
2024/03/24 01:07:40;;;;;;;3.50;1.10;;;;;;;;;;527686;28;964;-69
2024/03/24 01:07:55;;;;;;;2.90;1.07;;;;;;;;;;525608;28;1207;-69
2024/03/24 01:08:10;;;;;;;2.20;1.05;;;;;;;;;;525197;28;1144;-69
2024/03/24 01:08:26;;;;;;;2.27;1.00;;;;;;;;;;525111;28;1028;-69
2024/03/24 01:08:41;;;;;;;2.47;1.00;;;;;;;;;;525577;28;912;-69
2024/03/24 01:08:56;;;;;;;2.40;1.10;;;;;;;;;;525422;28;932;-69
2024/03/24 01:09:13;;;;;;;1.98;1.00;;;;;;;;;;525225;28;1241;-69
2024/03/24 01:09:29;;;;;;;2.10;0.88;;;;;;;;;;526281;28;877;-69
2024/03/24 01:09:44;;;;;;;2.33;0.90;;;;;;;;;;527935;27;860;-69
2024/03/24 01:09:59;;;;;;;2.28;1.10;;;;;;;;;;528905;28;892;-69
2024/03/24 01:10:14;;;;;;;3.40;1.20;;;;;;;;;;530203;27;873;-69
2024/03/24 01:10:30;;;;;;;3.80;1.10;;;;;;;;;;530406;27;963;-68
2024/03/24 01:10:45;;;;;;;2.30;1.00;;;;;;;;;;529915;27;853;-69
2024/03/24 01:11:04;;;;;;;2.23;1.23;;;;;;;;;;529883;27;805;-69
2024/03/24 01:11:20;;;;;;;2.35;1.30;;;;;;;;;;529751;27;880;-69
2024/03/24 01:11:35;;;;;;;1.93;1.00;;;;;;;;;;529849;27;988;-68
2024/03/24 01:11:50;;;;;;;2.28;1.00;;;;;;;;;;530066;27;948;-69
2024/03/24 01:12:07;;;;;;;2.37;0.97;;;;;;;;;;529662;27;940;-69
2024/03/24 01:12:24;;;;;;;2.08;1.00;;;;;;;;;;529811;27;1058;-69
2024/03/24 01:12:39;;;;;;;1.45;0.90;;;;;;;;;;529924;27;944;-69
2024/03/24 01:12:54;;;;;;;1.65;0.90;;;;;;;;;;527617;28;1224;-68
2024/03/24 01:13:10;;;;;;;1.83;1.00;;;;;;;;;;527599;28;865;-68
2024/03/24 01:13:25;;;;;;;1.70;1.00;;;;;;;;;;527555;28;1066;-68
2024/03/24 01:13:40;;;;;;;2.10;1.00;;;;;;;;;;529364;27;1166;-68
2024/03/24 01:13:56;;;;;;;2.93;1.10;;;;;;;;;;529839;27;818;-69
2024/03/24 01:14:11;;;;;;;2.67;1.10;;;;;;;;;;529705;27;840;-69
2024/03/24 01:14:28;;;;;;;2.10;0.90;;;;;;;;;;528073;28;1125;-69
2024/03/24 01:14:43;;;;;;;2.65;1.00;;;;;;;;;;526182;28;1489;-68
2024/03/24 01:14:59;;;;;;;2.87;0.93;;;;;;;;;;527567;28;810;-68
2024/03/24 01:15:14;;;;;;;2.15;0.90;;;;;;;;;;525958;28;924;-68
2024/03/24 01:15:31;;;;;;;1.93;1.00;;;;;;;;;;529281;27;866;-68
2024/03/24 01:15:46;;;;;;;2.50;0.93;;;;;;;;;;527645;28;1910;-69
2024/03/24 01:16:02;;;;;;;2.90;1.00;;;;;;;;;;527544;28;1069;-68
2024/03/24 01:16:17;;;;;;;2.45;1.10;;;;;;;;;;527523;28;1003;-68
2024/03/24 01:16:32;;;;;;;2.00;1.10;;;;;;;;;;526186;28;1385;-69
2024/03/24 01:16:48;;;;;;;2.50;1.13;;;;;;;;;;527381;28;861;-68
2024/03/24 01:17:03;;;;;;;3.20;1.20;;;;;;;;;;527767;28;1051;-68
2024/03/24 01:17:18;;;;;;;2.80;1.13;;;;;;;;;;526655;28;1171;-69
2024/03/24 01:17:34;;;;;;;2.10;1.10;;;;;;;;;;525670;28;1155;-69
2024/03/24 01:17:49;;;;;;;2.35;1.13;;;;;;;;;;527560;28;1012;-69
2024/03/24 01:18:04;;;;;;;2.97;1.33;;;;;;;;;;527766;28;865;-69
2024/03/24 01:18:19;;;;;;;3.23;1.60;;;;;;;;;;525308;28;1140;-69
2024/03/24 01:18:35;;;;;;;3.27;1.53;;;;;;;;;;525323;28;1075;-68
2024/03/24 01:18:50;;;;;;;2.30;1.07;;;;;;;;;;523209;28;902;-69
2024/03/24 01:19:06;;;;;;;1.60;0.80;;;;;;;;;;523252;28;1076;-68
2024/03/24 01:19:21;;;;;;;2.70;1.05;;;;;;;;;;522429;28;1071;-70
2024/03/24 01:19:36;;;;;;;3.33;1.27;;;;;;;;;;523077;28;811;-68
2024/03/24 01:19:52;;;;;;;3.03;1.42;;;;;;;;;;523487;28;830;-68
2024/03/24 01:20:11;;;;;;;2.93;1.40;;;;;;;;;;523784;28;850;-72
2024/03/24 01:20:26;;;;;;;3.38;1.10;;;;;;;;;;523033;28;1383;-71
2024/03/24 01:20:41;;;;;;;2.67;1.07;;;;;;;;;;523223;28;1063;-71
2024/03/24 01:20:56;;;;;;;1.80;1.00;;;;;;;;;;525249;28;977;-71
2024/03/24 01:21:12;;;;;;;2.17;1.00;;;;;;;;;;524212;28;1377;-71
2024/03/24 01:21:27;;;;;;;2.10;1.00;;;;;;;;;;525220;28;920;-71
2024/03/24 01:21:42;;;;;;;1.47;1.00;;;;;;;;;;523436;28;1258;-71
2024/03/24 01:21:58;;;;;;;2.63;1.00;;;;;;;;;;523220;28;980;-72
2024/03/24 01:22:13;;;;;;;3.23;1.10;;;;;;;;;;523430;28;1098;-71
2024/03/24 01:22:29;;;;;;;2.43;1.10;;;;;;;;;;525572;28;910;-71
2024/03/24 01:22:45;;;;;;;2.08;0.98;;;;;;;;;;525718;28;881;-71
2024/03/24 01:23:00;;;;;;;2.10;1.00;;;;;;;;;;525753;28;1000;-71
2024/03/24 01:23:16;;;;;;;2.60;1.00;;;;;;;;;;527514;28;1090;-72
2024/03/24 01:23:31;;;;;;;2.57;0.90;;;;;;;;;;527325;28;1020;-72
2024/03/24 01:23:46;;;;;;;2.17;1.00;;;;;;;;;;527683;28;810;-71
2024/03/24 01:24:03;;;;;;;2.10;1.20;;;;;;;;;;525917;28;1215;-71
2024/03/24 01:24:18;;;;;;;3.03;1.30;;;;;;;;;;527393;28;1081;-71
2024/03/24 01:24:34;;;;;;;2.87;1.13;;;;;;;;;;527003;28;846;-72
2024/03/24 01:24:49;;;;;;;2.53;1.00;;;;;;;;;;527772;28;999;-72
2024/03/24 01:25:05;;;;;;;2.30;1.03;;;;;;;;;;525198;28;1055;-72
2024/03/24 01:25:20;;;;;;;2.50;1.08;;;;;;;;;;522105;28;1509;-71
2024/03/24 01:25:36;;;;;;;3.13;1.00;;;;;;;;;;521350;28;1060;-72
2024/03/24 01:25:51;;;;;;;2.70;1.00;;;;;;;;;;521889;28;1051;-72
2024/03/24 01:26:06;;;;;;;2.50;1.00;;;;;;;;;;523279;28;944;-72
2024/03/24 01:26:22;;;;;;;2.35;1.20;;;;;;;;;;523646;28;1064;-72
2024/03/24 01:26:37;;;;;;;2.58;1.27;;;;;;;;;;525429;28;1020;-72
2024/03/24 01:26:53;;;;;;;3.07;1.20;;;;;;;;;;525918;28;798;-72
2024/03/24 01:27:08;;;;;;;2.97;1.30;;;;;;;;;;527529;28;794;-72
2024/03/24 01:27:23;;;;;;;2.73;1.40;;;;;;;;;;529608;27;1070;-71
2024/03/24 01:27:39;;;;;;;2.67;1.20;;;;;;;;;;527550;28;1237;-71
2024/03/24 01:27:54;;;;;;;2.70;1.10;;;;;;;;;;527652;28;850;-72
2024/03/24 01:28:09;;;;;;;2.73;1.17;;;;;;;;;;525380;28;1542;-71
2024/03/24 01:28:24;;;;;;;2.40;1.00;;;;;;;;;;525047;28;1144;-73
2024/03/24 01:28:40;;;;;;;1.97;0.87;;;;;;;;;;525550;28;1053;-71
2024/03/24 01:28:55;;;;;;;1.80;0.90;;;;;;;;;;525533;28;885;-72
2024/03/24 01:29:12;;;;;;;1.67;1.00;;;;;;;;;;525507;28;869;-72
2024/03/24 01:29:28;;;;;;;1.83;0.95;;;;;;;;;;526822;28;949;-75
2024/03/24 01:29:43;;;;;;;2.10;1.00;;;;;;;;;;529691;27;873;-72
2024/03/24 01:29:58;;;;;;;2.17;1.00;;;;;;;;;;528028;27;1455;-72
2024/03/24 01:30:14;;;;;;;2.77;0.97;;;;;;;;;;529507;28;1057;-69
2024/03/24 01:30:29;;;;;;;3.20;0.93;;;;;;;;;;527799;28;921;-69
2024/03/24 01:30:44;;;;;;;2.67;1.00;;;;;;;;;;527413;28;1082;-68
2024/03/24 01:31:00;;;;;;;2.37;0.93;;;;;;;;;;527713;28;1043;-69
2024/03/24 01:31:15;;;;;;;2.22;0.90;;;;;;;;;;527778;28;1038;-68
2024/03/24 01:31:30;;;;;;;2.03;1.00;;;;;;;;;;529614;27;797;-69
2024/03/24 01:31:46;;;;;;;1.90;1.03;;;;;;;;;;529958;27;936;-69
2024/03/24 01:32:01;;;;;;;2.17;1.00;;;;;;;;;;532084;27;826;-68
2024/03/24 01:32:16;;;;;;;2.10;1.00;;;;;;;;;;531361;27;1041;-69
2024/03/24 01:32:32;;;;;;;1.77;0.90;;;;;;;;;;527477;28;1220;-69
2024/03/24 01:32:47;;;;;;;1.90;1.07;;;;;;;;;;527718;28;937;-69
2024/03/24 01:33:02;;;;;;;2.47;1.10;;;;;;;;;;527538;28;818;-69
2024/03/24 01:33:18;;;;;;;2.80;1.10;;;;;;;;;;527347;28;1019;-68
2024/03/24 01:33:33;;;;;;;3.08;1.10;;;;;;;;;;527071;28;1310;-69
2024/03/24 01:33:48;;;;;;;3.00;1.10;;;;;;;;;;525795;28;806;-69
2024/03/24 01:34:03;;;;;;;2.20;1.00;;;;;;;;;;525322;28;1280;-69
2024/03/24 01:34:19;;;;;;;2.50;0.90;;;;;;;;;;526470;28;999;-69
2024/03/24 01:34:34;;;;;;;2.58;0.90;;;;;;;;;;527082;28;829;-69
2024/03/24 01:34:50;;;;;;;2.50;1.07;;;;;;;;;;527706;28;806;-69
2024/03/24 01:35:05;;;;;;;2.17;1.20;;;;;;;;;;527537;28;1044;-68
2024/03/24 01:35:21;;;;;;;2.10;1.10;;;;;;;;;;527322;28;1070;-68
2024/03/24 01:35:36;;;;;;;1.85;0.90;;;;;;;;;;525469;28;1261;-68
2024/03/24 01:35:51;;;;;;;1.13;0.80;;;;;;;;;;525752;28;900;-68
2024/03/24 01:36:06;;;;;;;1.47;0.90;;;;;;;;;;527523;28;945;-69